createdAt,value
2018-08-04T00:00:10.340Z,101763.33
2018-08-04T00:00:32.093Z,101770.44
2018-08-04T00:00:53.836Z,101768.72
2018-08-04T00:01:15.600Z,101774.39
2018-08-04T00:01:37.357Z,101776.63
2018-08-04T00:01:59.133Z,101777.43
2018-08-04T00:02:20.911Z,101776.51
2018-08-04T00:02:42.670Z,101776.11
2018-08-04T00:03:04.437Z,101778.98
2018-08-04T00:03:26.204Z,101777.67
2018-08-04T00:03:47.958Z,101779.55
2018-08-04T00:04:09.699Z,101780.06
2018-08-04T00:04:31.464Z,101778.75
2018-08-04T00:04:53.219Z,101777.43
2018-08-04T00:05:14.967Z,101783.10
2018-08-04T00:05:36.727Z,101781.63
2018-08-04T00:05:58.516Z,101779.91
2018-08-04T00:06:20.279Z,101782.18
2018-08-04T00:06:42.032Z,101786.89
2018-08-04T00:07:03.793Z,101787.30
2018-08-04T00:07:25.551Z,101783.34
2018-08-04T00:07:47.322Z,101783.34
2018-08-04T00:08:09.100Z,101778.06
2018-08-04T00:08:30.854Z,101779.91
2018-08-04T00:08:52.630Z,101778.22
2018-08-04T00:09:14.390Z,101775.03
2018-08-04T00:09:36.139Z,101776.75
2018-08-04T00:09:57.893Z,101777.67
2018-08-04T00:10:20.228Z,101780.30
2018-08-04T00:10:41.984Z,101776.75
2018-08-04T00:11:03.743Z,101778.46
2018-08-04T00:11:25.499Z,101776.22
2018-08-04T00:11:47.280Z,101776.22
2018-08-04T00:12:09.040Z,101781.90
2018-08-04T00:12:30.788Z,101771.75
2018-08-04T00:12:52.811Z,101777.55
2018-08-04T00:13:14.571Z,101784.01
2018-08-04T00:13:36.313Z,101774.78
2018-08-04T00:13:58.091Z,101775.58
2018-08-04T00:14:19.839Z,101768.19
2018-08-04T00:14:41.600Z,101775.30
2018-08-04T00:15:03.366Z,101774.38
2018-08-04T00:15:25.129Z,101776.50
2018-08-04T00:15:46.901Z,101778.73
2018-08-04T00:16:08.680Z,101773.46
2018-08-04T00:16:30.443Z,101768.19
2018-08-04T00:16:52.194Z,101773.46
2018-08-04T00:17:13.975Z,101774.78
2018-08-04T00:17:35.955Z,101769.51
2018-08-04T00:17:57.747Z,101768.98
2018-08-04T00:18:19.523Z,101773.34
2018-08-04T00:18:41.286Z,101772.94
2018-08-04T00:19:03.070Z,101772.02
2018-08-04T00:19:24.835Z,101771.63
2018-08-04T00:19:46.594Z,101778.22
2018-08-04T00:20:08.355Z,101777.81
2018-08-04T00:20:30.116Z,101777.30
2018-08-04T00:20:51.888Z,101775.18
2018-08-04T00:21:13.638Z,101778.34
2018-08-04T00:21:35.435Z,101773.46
2018-08-04T00:21:57.203Z,101768.72
2018-08-04T00:22:18.971Z,101774.91
2018-08-04T00:22:40.903Z,101773.59
2018-08-04T00:23:02.659Z,101777.14
2018-08-04T00:23:24.724Z,101774.11
2018-08-04T00:23:46.477Z,101770.95
2018-08-04T00:24:08.228Z,101777.02
2018-08-04T00:24:29.996Z,101770.43
2018-08-04T00:24:51.795Z,101766.75
2018-08-04T00:25:13.576Z,101773.46
2018-08-04T00:25:35.333Z,101772.67
2018-08-04T00:25:57.091Z,101771.88
2018-08-04T00:26:18.852Z,101777.55
2018-08-04T00:26:40.594Z,101771.88
2018-08-04T00:27:02.358Z,101770.95
2018-08-04T00:27:24.125Z,101767.39
2018-08-04T00:27:45.911Z,101767.00
2018-08-04T00:28:07.675Z,101772.80
2018-08-04T00:28:29.428Z,101769.63
2018-08-04T00:28:51.344Z,101768.84
2018-08-04T00:29:13.090Z,101761.33
2018-08-04T00:29:34.838Z,101767.00
2018-08-04T00:29:56.598Z,101768.31
2018-08-04T00:30:18.352Z,101769.76
2018-08-04T00:30:40.108Z,101765.41
2018-08-04T00:31:01.877Z,101769.52
2018-08-04T00:31:23.630Z,101762.25
2018-08-04T00:31:45.394Z,101768.84
2018-08-04T00:32:07.156Z,101767.12
2018-08-04T00:32:28.943Z,101766.48
2018-08-04T00:32:50.715Z,101765.68
2018-08-04T00:33:12.480Z,101766.48
2018-08-04T00:33:34.238Z,101767.39
2018-08-04T00:33:55.995Z,101762.52
2018-08-04T00:34:17.754Z,101765.55
2018-08-04T00:34:39.518Z,101763.96
2018-08-04T00:35:01.277Z,101763.44
2018-08-04T00:35:23.038Z,101759.09
2018-08-04T00:35:44.817Z,101760.80
2018-08-04T00:36:06.586Z,101767.91
2018-08-04T00:36:28.334Z,101766.59
2018-08-04T00:36:50.099Z,101762.64
2018-08-04T00:37:11.877Z,101760.53
2018-08-04T00:37:33.654Z,101763.56
2018-08-04T00:37:55.420Z,101762.25
2018-08-04T00:38:17.191Z,101761.72
2018-08-04T00:38:38.944Z,101758.96
2018-08-04T00:39:00.692Z,101769.63
2018-08-04T00:39:22.435Z,101763.44
2018-08-04T00:39:44.206Z,101768.31
2018-08-04T00:40:05.963Z,101768.31
2018-08-04T00:40:27.726Z,101764.76
2018-08-04T00:40:49.486Z,101764.76
2018-08-04T00:41:11.244Z,101767.80
2018-08-04T00:41:32.998Z,101763.84
2018-08-04T00:41:54.776Z,101765.16
2018-08-04T00:42:16.536Z,101767.80
2018-08-04T00:42:38.300Z,101765.28
2018-08-04T00:43:00.052Z,101758.96
2018-08-04T00:43:21.839Z,101756.45
2018-08-04T00:43:43.606Z,101762.52
2018-08-04T00:44:05.360Z,101757.64
2018-08-04T00:44:27.108Z,101755.93
2018-08-04T00:44:48.903Z,101757.12
2018-08-04T00:45:10.667Z,101757.52
2018-08-04T00:45:32.422Z,101757.40
2018-08-04T00:45:54.180Z,101753.17
2018-08-04T00:46:15.937Z,101755.01
2018-08-04T00:46:37.704Z,101755.13
2018-08-04T00:46:59.463Z,101753.81
2018-08-04T00:47:21.232Z,101756.45
2018-08-04T00:47:43.009Z,101751.45
2018-08-04T00:48:04.767Z,101755.01
2018-08-04T00:48:26.552Z,101761.20
2018-08-04T00:48:48.301Z,101755.93
2018-08-04T00:49:10.061Z,101754.09
2018-08-04T00:49:31.805Z,101753.56
2018-08-04T00:49:53.565Z,101757.40
2018-08-04T00:50:15.320Z,101757.92
2018-08-04T00:50:37.077Z,101764.11
2018-08-04T00:50:58.838Z,101760.55
2018-08-04T00:51:21.034Z,101758.31
2018-08-04T00:51:42.795Z,101761.59
2018-08-04T00:52:04.563Z,101760.68
2018-08-04T00:52:26.307Z,101760.68
2018-08-04T00:52:48.063Z,101753.69
2018-08-04T00:53:09.828Z,101756.33
2018-08-04T00:53:31.586Z,101758.17
2018-08-04T00:53:53.351Z,101752.37
2018-08-04T00:54:15.121Z,101756.84
2018-08-04T00:54:36.904Z,101755.41
2018-08-04T00:54:58.660Z,101759.36
2018-08-04T00:55:20.413Z,101755.41
2018-08-04T00:55:42.188Z,101760.55
2018-08-04T00:56:03.936Z,101754.77
2018-08-04T00:56:25.692Z,101750.93
2018-08-04T00:56:47.464Z,101756.20
2018-08-04T00:57:09.251Z,101747.89
2018-08-04T00:57:30.994Z,101758.96
2018-08-04T00:57:52.764Z,101752.37
2018-08-04T00:58:14.545Z,101754.73
2018-08-04T00:58:36.320Z,101756.72
2018-08-04T00:58:58.072Z,101750.02
2018-08-04T00:59:19.827Z,101750.28
2018-08-04T00:59:41.604Z,101749.48
2018-08-04T01:00:03.426Z,101752.13
2018-08-04T01:00:25.241Z,101751.20
2018-08-04T01:00:46.999Z,101754.23
2018-08-04T01:01:08.988Z,101753.72
2018-08-04T01:01:30.749Z,101757.00
2018-08-04T01:01:52.504Z,101756.48
2018-08-04T01:02:14.275Z,101753.31
2018-08-04T01:02:36.047Z,101752.40
2018-08-04T01:02:57.814Z,101745.69
2018-08-04T01:03:19.588Z,101754.64
2018-08-04T01:03:41.341Z,101751.20
2018-08-04T01:04:03.111Z,101745.94
2018-08-04T01:04:24.875Z,101748.56
2018-08-04T01:04:46.630Z,101753.05
2018-08-04T01:05:08.378Z,101751.20
2018-08-04T01:05:30.131Z,101752.52
2018-08-04T01:05:51.895Z,101745.53
2018-08-04T01:06:13.655Z,101750.28
2018-08-04T01:06:35.420Z,101748.56
2018-08-04T01:06:57.200Z,101748.44
2018-08-04T01:07:18.991Z,101751.60
2018-08-04T01:07:40.737Z,101748.17
2018-08-04T01:08:02.482Z,101750.93
2018-08-04T01:08:24.240Z,101754.36
2018-08-04T01:08:46.006Z,101749.48
2018-08-04T01:09:07.896Z,101746.85
2018-08-04T01:09:29.647Z,101753.84
2018-08-04T01:09:51.410Z,101752.00
2018-08-04T01:10:13.168Z,101753.31
2018-08-04T01:10:34.948Z,101751.36
2018-08-04T01:10:56.699Z,101744.24
2018-08-04T01:11:18.446Z,101748.20
2018-08-04T01:11:40.203Z,101746.32
2018-08-04T01:12:01.966Z,101748.72
2018-08-04T01:12:23.709Z,101746.72
2018-08-04T01:12:45.455Z,101747.00
2018-08-04T01:13:07.204Z,101750.03
2018-08-04T01:13:28.984Z,101748.84
2018-08-04T01:13:50.745Z,101746.20
2018-08-04T01:14:12.494Z,101750.16
2018-08-04T01:14:34.239Z,101744.48
2018-08-04T01:14:55.982Z,101746.61
2018-08-04T01:15:17.748Z,101750.16
2018-08-04T01:15:39.502Z,101749.23
2018-08-04T01:16:01.266Z,101750.03
2018-08-04T01:16:23.030Z,101750.95
2018-08-04T01:16:44.819Z,101750.44
2018-08-04T01:17:06.569Z,101751.48
2018-08-04T01:17:28.424Z,101753.99
2018-08-04T01:17:50.199Z,101750.55
2018-08-04T01:18:12.023Z,101754.11
2018-08-04T01:18:33.804Z,101752.80
2018-08-04T01:18:55.558Z,101750.95
2018-08-04T01:19:17.314Z,101748.32
2018-08-04T01:19:39.046Z,101749.36
2018-08-04T01:20:03.374Z,101753.84
2018-08-04T01:20:25.153Z,101751.20
2018-08-04T01:20:46.921Z,101749.48
2018-08-04T01:21:08.682Z,101748.17
2018-08-04T01:21:30.447Z,101748.56
2018-08-04T01:21:52.306Z,101751.48
2018-08-04T01:22:14.062Z,101745.41
2018-08-04T01:22:36.956Z,101743.17
2018-08-04T01:22:58.710Z,101751.08
2018-08-04T01:23:20.474Z,101747.65
2018-08-04T01:23:42.264Z,101740.02
2018-08-04T01:24:04.050Z,101746.73
2018-08-04T01:24:25.794Z,101743.17
2018-08-04T01:24:47.569Z,101743.57
2018-08-04T01:25:09.326Z,101743.05
2018-08-04T01:25:31.134Z,101742.65
2018-08-04T01:25:52.903Z,101741.33
2018-08-04T01:26:14.668Z,101739.37
2018-08-04T01:26:36.414Z,101742.92
2018-08-04T01:26:58.393Z,101738.30
2018-08-04T01:27:20.143Z,101738.70
2018-08-04T01:27:41.882Z,101740.41
2018-08-04T01:28:03.654Z,101741.45
2018-08-04T01:28:25.420Z,101739.20
2018-08-04T01:28:47.196Z,101734.86
2018-08-04T01:29:08.944Z,101743.84
2018-08-04T01:29:30.742Z,101745.56
2018-08-04T01:29:52.504Z,101736.06
2018-08-04T01:30:14.289Z,101741.85
2018-08-04T01:30:36.061Z,101738.57
2018-08-04T01:30:57.875Z,101735.25
2018-08-04T01:31:19.635Z,101732.22
2018-08-04T01:31:41.447Z,101732.78
2018-08-04T01:32:03.204Z,101738.57
2018-08-04T01:32:24.959Z,101735.94
2018-08-04T01:32:46.709Z,101730.91
2018-08-04T01:33:08.453Z,101734.86
2018-08-04T01:33:30.250Z,101733.14
2018-08-04T01:33:52.001Z,101728.42
2018-08-04T01:34:13.757Z,101730.14
2018-08-04T01:34:35.505Z,101735.41
2018-08-04T01:34:57.324Z,101724.87
2018-08-04T01:35:19.088Z,101732.22
2018-08-04T01:35:40.862Z,101734.45
2018-08-04T01:36:02.614Z,101727.50
2018-08-04T01:36:24.361Z,101729.74
2018-08-04T01:36:46.111Z,101732.78
2018-08-04T01:37:07.866Z,101730.14
2018-08-04T01:37:29.895Z,101731.58
2018-08-04T01:37:51.634Z,101731.19
2018-08-04T01:38:13.394Z,101728.15
2018-08-04T01:38:35.171Z,101731.70
2018-08-04T01:38:56.935Z,101729.99
2018-08-04T01:39:18.700Z,101730.52
2018-08-04T01:39:40.473Z,101727.75
2018-08-04T01:40:02.238Z,101732.38
2018-08-04T01:40:24.001Z,101724.31
2018-08-04T01:40:45.758Z,101721.67
2018-08-04T01:41:07.535Z,101726.95
2018-08-04T01:41:29.269Z,101727.11
2018-08-04T01:41:51.018Z,101724.47
2018-08-04T01:42:12.776Z,101728.03
2018-08-04T01:42:34.551Z,101722.75
2018-08-04T01:42:56.308Z,101728.42
2018-08-04T01:43:18.074Z,101726.95
2018-08-04T01:43:39.837Z,101726.95
2018-08-04T01:44:01.611Z,101724.71
2018-08-04T01:44:23.373Z,101723.27
2018-08-04T01:44:45.127Z,101728.27
2018-08-04T01:45:06.875Z,101725.63
2018-08-04T01:45:28.636Z,101725.91
2018-08-04T01:45:50.383Z,101726.83
2018-08-04T01:46:12.146Z,101729.58
2018-08-04T01:46:33.910Z,101730.14
2018-08-04T01:46:55.678Z,101731.06
2018-08-04T01:47:17.645Z,101721.28
2018-08-04T01:47:39.405Z,101724.87
2018-08-04T01:48:01.164Z,101727.50
2018-08-04T01:48:22.978Z,101727.87
2018-08-04T01:48:44.714Z,101730.91
2018-08-04T01:49:06.455Z,101724.98
2018-08-04T01:49:28.209Z,101732.09
2018-08-04T01:49:49.968Z,101728.66
2018-08-04T01:50:11.737Z,101732.22
2018-08-04T01:50:33.498Z,101733.41
2018-08-04T01:50:55.264Z,101732.09
2018-08-04T01:51:17.054Z,101731.30
2018-08-04T01:51:38.811Z,101729.46
2018-08-04T01:52:00.576Z,101735.41
2018-08-04T01:52:22.347Z,101731.97
2018-08-04T01:52:44.167Z,101732.38
2018-08-04T01:53:05.923Z,101729.86
2018-08-04T01:53:27.688Z,101728.02
2018-08-04T01:53:49.458Z,101727.50
2018-08-04T01:54:11.209Z,101724.46
2018-08-04T01:54:32.957Z,101723.14
2018-08-04T01:54:54.725Z,101728.54
2018-08-04T01:55:16.498Z,101726.83
2018-08-04T01:55:38.250Z,101726.83
2018-08-04T01:56:00.013Z,101722.87
2018-08-04T01:56:21.758Z,101723.27
2018-08-04T01:56:43.550Z,101727.89
2018-08-04T01:57:05.330Z,101728.81
2018-08-04T01:57:27.086Z,101727.63
2018-08-04T01:57:48.843Z,101727.63
2018-08-04T01:58:10.600Z,101728.81
2018-08-04T01:58:32.359Z,101728.81
2018-08-04T01:58:54.142Z,101735.92
2018-08-04T01:59:16.009Z,101732.25
2018-08-04T01:59:37.691Z,101733.95
2018-08-04T01:59:59.471Z,101728.29
2018-08-04T02:00:21.227Z,101728.69
2018-08-04T02:00:42.991Z,101729.61
2018-08-04T02:01:04.757Z,101733.56
2018-08-04T02:01:26.513Z,101732.64
2018-08-04T02:01:48.250Z,101726.05
2018-08-04T02:02:10.014Z,101733.04
2018-08-04T02:02:31.762Z,101730.92
2018-08-04T02:02:53.516Z,101729.09
2018-08-04T02:03:15.277Z,101728.16
2018-08-04T02:03:37.048Z,101731.33
2018-08-04T02:03:58.813Z,101729.48
2018-08-04T02:04:20.566Z,101730.28
2018-08-04T02:04:42.353Z,101729.61
2018-08-04T02:05:04.102Z,101725.66
2018-08-04T02:05:25.868Z,101724.34
2018-08-04T02:05:47.627Z,101723.94
2018-08-04T02:06:09.398Z,101727.38
2018-08-04T02:06:31.154Z,101727.77
2018-08-04T02:06:52.934Z,101723.69
2018-08-04T02:07:14.727Z,101726.33
2018-08-04T02:07:36.441Z,101727.64
2018-08-04T02:07:58.194Z,101722.38
2018-08-04T02:08:19.946Z,101725.53
2018-08-04T02:08:41.709Z,101724.22
2018-08-04T02:09:04.596Z,101726.84
2018-08-04T02:09:26.354Z,101721.18
2018-08-04T02:09:48.136Z,101723.94
2018-08-04T02:10:09.899Z,101724.61
2018-08-04T02:10:31.641Z,101717.63
2018-08-04T02:10:53.461Z,101729.88
2018-08-04T02:11:15.211Z,101728.16
2018-08-04T02:11:36.961Z,101728.97
2018-08-04T02:11:58.720Z,101731.33
2018-08-04T02:12:20.486Z,101728.16
2018-08-04T02:12:42.239Z,101722.77
2018-08-04T02:13:03.992Z,101724.09
2018-08-04T02:13:25.754Z,101729.11
2018-08-04T02:13:47.538Z,101721.20
2018-08-04T02:14:09.302Z,101729.51
2018-08-04T02:14:31.076Z,101724.88
2018-08-04T02:14:52.822Z,101722.52
2018-08-04T02:15:14.574Z,101727.80
2018-08-04T02:15:36.310Z,101727.80
2018-08-04T02:15:58.071Z,101724.08
2018-08-04T02:16:19.829Z,101730.03
2018-08-04T02:16:41.563Z,101730.14
2018-08-04T02:17:03.323Z,101730.94
2018-08-04T02:17:25.092Z,101727.91
2018-08-04T02:17:46.861Z,101728.03
2018-08-04T02:18:08.742Z,101725.91
2018-08-04T02:18:30.520Z,101727.63
2018-08-04T02:18:52.292Z,101726.88
2018-08-04T02:19:14.090Z,101730.42
2018-08-04T02:19:35.844Z,101730.83
2018-08-04T02:19:57.619Z,101734.38
2018-08-04T02:20:19.393Z,101728.72
2018-08-04T02:20:41.149Z,101726.20
2018-08-04T02:21:02.907Z,101727.92
2018-08-04T02:21:24.666Z,101728.84
2018-08-04T02:21:46.424Z,101732.27
2018-08-04T02:22:08.198Z,101725.55
2018-08-04T02:22:29.944Z,101724.48
2018-08-04T02:22:51.707Z,101720.12
2018-08-04T02:23:13.473Z,101727.23
2018-08-04T02:23:35.228Z,101723.28
2018-08-04T02:23:56.982Z,101725.79
2018-08-04T02:24:18.767Z,101722.36
2018-08-04T02:24:40.522Z,101724.59
2018-08-04T02:25:02.277Z,101723.28
2018-08-04T02:25:24.027Z,101724.23
2018-08-04T02:25:45.791Z,101724.48
2018-08-04T02:26:07.548Z,101724.35
2018-08-04T02:26:29.304Z,101724.87
2018-08-04T02:26:51.174Z,101726.98
2018-08-04T02:27:12.933Z,101726.98
2018-08-04T02:27:34.755Z,101724.87
2018-08-04T02:27:56.505Z,101725.79
2018-08-04T02:28:18.267Z,101720.00
2018-08-04T02:28:40.035Z,101724.48
2018-08-04T02:29:01.801Z,101721.72
2018-08-04T02:29:23.561Z,101721.19
2018-08-04T02:29:45.322Z,101726.19
2018-08-04T02:30:07.080Z,101729.09
2018-08-04T02:30:28.851Z,101719.35
2018-08-04T02:30:50.594Z,101729.50
2018-08-04T02:31:12.358Z,101730.81
2018-08-04T02:31:34.119Z,101721.98
2018-08-04T02:31:55.881Z,101720.67
2018-08-04T02:32:17.636Z,101722.91
2018-08-04T02:32:39.397Z,101721.72
2018-08-04T02:33:01.154Z,101718.56
2018-08-04T02:33:22.915Z,101725.02
2018-08-04T02:33:44.683Z,101718.95
2018-08-04T02:34:06.464Z,101718.56
2018-08-04T02:34:28.231Z,101717.76
2018-08-04T02:34:49.988Z,101718.69
2018-08-04T02:35:11.738Z,101718.69
2018-08-04T02:35:33.494Z,101716.45
2018-08-04T02:35:55.264Z,101715.65
2018-08-04T02:36:17.032Z,101710.77
2018-08-04T02:36:38.782Z,101713.94
2018-08-04T02:37:00.555Z,101713.41
2018-08-04T02:37:22.304Z,101716.05
2018-08-04T02:37:44.089Z,101714.60
2018-08-04T02:38:05.848Z,101717.23
2018-08-04T02:38:27.607Z,101713.81
2018-08-04T02:38:49.374Z,101711.70
2018-08-04T02:39:11.138Z,101711.57
2018-08-04T02:39:32.924Z,101712.37
2018-08-04T02:39:54.688Z,101712.89
2018-08-04T02:40:16.464Z,101710.77
2018-08-04T02:40:38.225Z,101712.49
2018-08-04T02:40:59.995Z,101709.73
2018-08-04T02:41:21.752Z,101708.53
2018-08-04T02:41:43.531Z,101709.45
2018-08-04T02:42:05.271Z,101706.70
2018-08-04T02:42:27.031Z,101707.62
2018-08-04T02:42:48.802Z,101705.50
2018-08-04T02:43:10.555Z,101705.38
2018-08-04T02:43:32.327Z,101703.66
2018-08-04T02:43:54.081Z,101703.14
2018-08-04T02:44:15.930Z,101708.81
2018-08-04T02:44:37.699Z,101703.94
2018-08-04T02:44:59.434Z,101703.94
2018-08-04T02:45:21.278Z,101698.14
2018-08-04T02:45:43.025Z,101701.58
2018-08-04T02:46:04.779Z,101703.41
2018-08-04T02:46:26.553Z,101698.02
2018-08-04T02:46:48.312Z,101703.29
2018-08-04T02:47:10.070Z,101699.86
2018-08-04T02:47:31.843Z,101695.78
2018-08-04T02:47:53.599Z,101697.50
2018-08-04T02:48:15.359Z,101699.34
2018-08-04T02:48:37.118Z,101703.69
2018-08-04T02:48:58.875Z,101703.16
2018-08-04T02:49:20.652Z,101701.05
2018-08-04T02:49:42.394Z,101698.81
2018-08-04T02:50:04.144Z,101696.58
2018-08-04T02:50:25.912Z,101700.41
2018-08-04T02:50:47.675Z,101702.25
2018-08-04T02:51:09.441Z,101697.50
2018-08-04T02:51:31.203Z,101693.55
2018-08-04T02:51:53.021Z,101692.23
2018-08-04T02:52:14.778Z,101694.86
2018-08-04T02:52:36.544Z,101697.10
2018-08-04T02:52:58.308Z,101693.15
2018-08-04T02:53:20.077Z,101685.77
2018-08-04T02:53:42.373Z,101692.35
2018-08-04T02:54:04.172Z,101691.83
2018-08-04T02:54:25.918Z,101690.91
2018-08-04T02:54:47.675Z,101694.22
2018-08-04T02:55:09.431Z,101692.50
2018-08-04T02:55:31.233Z,101687.75
2018-08-04T02:55:52.986Z,101690.78
2018-08-04T02:56:14.751Z,101689.59
2018-08-04T02:56:36.498Z,101694.34
2018-08-04T02:56:58.252Z,101690.78
2018-08-04T02:57:20.015Z,101689.99
2018-08-04T02:57:41.780Z,101689.59
2018-08-04T02:58:03.530Z,101695.39
2018-08-04T02:58:25.292Z,101696.58
2018-08-04T02:58:47.062Z,101696.45
2018-08-04T02:59:08.868Z,101694.22
2018-08-04T02:59:30.622Z,101696.45
2018-08-04T02:59:52.370Z,101690.90
2018-08-04T03:00:14.487Z,101694.05
2018-08-04T03:00:36.244Z,101688.66
2018-08-04T03:00:58.006Z,101695.25
2018-08-04T03:01:19.765Z,101690.50
2018-08-04T03:01:41.510Z,101695.38
2018-08-04T03:02:03.268Z,101696.17
2018-08-04T03:02:25.032Z,101693.41
2018-08-04T03:02:46.797Z,101691.17
2018-08-04T03:03:08.551Z,101695.52
2018-08-04T03:03:30.367Z,101697.09
2018-08-04T03:03:52.096Z,101691.42
2018-08-04T03:04:13.878Z,101697.61
2018-08-04T03:04:35.624Z,101697.61
2018-08-04T03:04:57.378Z,101698.01
2018-08-04T03:05:19.145Z,101695.25
2018-08-04T03:05:41.359Z,101702.36
2018-08-04T03:06:03.129Z,101697.88
2018-08-04T03:06:24.884Z,101701.04
2018-08-04T03:06:46.649Z,101699.47
2018-08-04T03:07:08.398Z,101702.75
2018-08-04T03:08:55.498Z,101694.45
2018-08-04T03:09:17.272Z,101693.53
2018-08-04T03:09:39.060Z,101692.61
2018-08-04T03:10:00.832Z,101693.53
2018-08-04T03:10:22.591Z,101687.47
2018-08-04T03:10:44.355Z,101689.58
2018-08-04T03:11:06.120Z,101691.98
2018-08-04T03:11:27.866Z,101685.63
2018-08-04T03:11:49.607Z,101686.42
2018-08-04T03:12:11.408Z,101684.19
2018-08-04T03:12:33.139Z,101686.82
2018-08-04T03:12:54.902Z,101694.98
2018-08-04T03:13:16.669Z,101690.11
2018-08-04T03:13:38.478Z,101690.50
2018-08-04T03:14:00.266Z,101690.11
2018-08-04T03:14:22.071Z,101686.16
2018-08-04T03:14:43.832Z,101686.95
2018-08-04T03:15:05.589Z,101688.27
2018-08-04T03:15:27.340Z,101685.50
2018-08-04T03:15:49.116Z,101680.63
2018-08-04T03:16:10.874Z,101685.11
2018-08-04T03:16:32.637Z,101684.19
2018-08-04T03:16:54.388Z,101685.63
2018-08-04T03:17:16.360Z,101683.12
2018-08-04T03:17:38.131Z,101680.13
2018-08-04T03:17:59.899Z,101683.67
2018-08-04T03:18:21.646Z,101682.20
2018-08-04T03:18:43.418Z,101681.55
2018-08-04T03:19:05.184Z,101679.05
2018-08-04T03:19:26.960Z,101681.67
2018-08-04T03:19:48.720Z,101686.82
2018-08-04T03:20:10.485Z,101680.63
2018-08-04T03:20:32.248Z,101679.72
2018-08-04T03:20:54.012Z,101684.19
2018-08-04T03:21:15.761Z,101682.34
2018-08-04T03:21:37.519Z,101680.51
2018-08-04T03:21:59.281Z,101682.22
2018-08-04T03:22:21.038Z,101683.66
2018-08-04T03:22:42.782Z,101679.31
2018-08-04T03:23:04.551Z,101681.16
2018-08-04T03:23:26.304Z,101681.16
2018-08-04T03:23:48.086Z,101680.76
2018-08-04T03:24:09.864Z,101683.52
2018-08-04T03:24:31.632Z,101678.64
2018-08-04T03:24:53.389Z,101685.63
2018-08-04T03:25:15.137Z,101684.31
2018-08-04T03:25:36.904Z,101683.39
2018-08-04T03:25:58.656Z,101678.13
2018-08-04T03:26:20.440Z,101681.43
2018-08-04T03:26:42.191Z,101680.38
2018-08-04T03:27:03.942Z,101686.45
2018-08-04T03:27:25.693Z,101683.94
2018-08-04T03:27:47.444Z,101680.51
2018-08-04T03:28:09.198Z,101677.75
2018-08-04T03:28:30.968Z,101683.94
2018-08-04T03:28:52.922Z,101681.43
2018-08-04T03:29:14.676Z,101680.51
2018-08-04T03:29:36.442Z,101676.03
2018-08-04T03:29:58.197Z,101679.06
2018-08-04T03:30:20.027Z,101679.86
2018-08-04T03:30:41.793Z,101686.70
2018-08-04T03:31:03.573Z,101680.91
2018-08-04T03:31:25.319Z,101686.97
2018-08-04T03:31:47.078Z,101686.45
2018-08-04T03:32:09.083Z,101686.84
2018-08-04T03:32:30.838Z,101688.81
2018-08-04T03:32:52.609Z,101686.70
2018-08-04T03:33:14.363Z,101693.69
2018-08-04T03:33:36.110Z,101688.16
2018-08-04T03:33:57.867Z,101692.11
2018-08-04T03:34:19.632Z,101689.88
2018-08-04T03:34:41.395Z,101688.03
2018-08-04T03:35:03.145Z,101687.64
2018-08-04T03:35:24.889Z,101687.64
2018-08-04T03:35:46.653Z,101685.53
2018-08-04T03:36:08.431Z,101687.64
2018-08-04T03:36:30.191Z,101690.80
2018-08-04T03:36:51.942Z,101687.52
2018-08-04T03:37:13.691Z,101689.75
2018-08-04T03:37:35.443Z,101686.72
2018-08-04T03:37:57.190Z,101685.00
2018-08-04T03:38:18.939Z,101692.11
2018-08-04T03:38:40.707Z,101686.72
2018-08-04T03:39:02.459Z,101680.01
2018-08-04T03:39:24.252Z,101686.32
2018-08-04T03:39:46.007Z,101683.81
2018-08-04T03:40:07.770Z,101685.53
2018-08-04T03:40:29.528Z,101685.41
2018-08-04T03:40:51.279Z,101685.67
2018-08-04T03:41:13.063Z,101683.56
2018-08-04T03:41:34.821Z,101682.25
2018-08-04T03:41:56.584Z,101683.56
2018-08-04T03:42:18.338Z,101682.38
2018-08-04T03:42:40.182Z,101680.66
2018-08-04T03:43:01.961Z,101675.78
2018-08-04T03:43:23.698Z,101682.50
2018-08-04T03:43:45.462Z,101674.59
2018-08-04T03:45:10.314Z,101681.45
2018-08-04T03:45:32.073Z,101674.98
2018-08-04T03:45:53.836Z,101673.55
2018-08-04T03:46:15.601Z,101681.72
2018-08-04T03:46:37.632Z,101674.58
2018-08-04T03:46:59.385Z,101673.82
2018-08-04T03:47:21.140Z,101672.50
2018-08-04T03:47:42.897Z,101673.03
2018-08-04T03:48:04.651Z,101674.34
2018-08-04T03:48:26.408Z,101668.67
2018-08-04T03:48:48.690Z,101670.79
2018-08-04T03:49:10.439Z,101675.14
2018-08-04T03:49:32.202Z,101673.95
2018-08-04T03:49:53.971Z,101673.55
2018-08-04T03:50:15.727Z,101678.81
2018-08-04T03:50:37.487Z,101675.27
2018-08-04T03:50:59.231Z,101675.90
2018-08-04T03:51:20.985Z,101671.58
2018-08-04T03:51:42.736Z,101672.91
2018-08-04T03:52:04.496Z,101674.58
2018-08-04T03:52:26.262Z,101676.98
2018-08-04T03:52:48.002Z,101667.23
2018-08-04T03:53:09.743Z,101676.45
2018-08-04T03:53:31.494Z,101677.22
2018-08-04T03:53:53.253Z,101672.73
2018-08-04T03:54:15.016Z,101676.69
2018-08-04T03:54:36.819Z,101673.66
2018-08-04T03:54:58.580Z,101676.45
2018-08-04T03:55:20.731Z,101671.70
2018-08-04T03:55:42.499Z,101673.42
2018-08-04T03:56:04.238Z,101674.34
2018-08-04T03:56:25.992Z,101673.03
2018-08-04T03:56:47.747Z,101672.62
2018-08-04T03:57:09.495Z,101675.14
2018-08-04T03:57:31.253Z,101675.66
2018-08-04T03:57:53.000Z,101668.16
2018-08-04T03:58:14.746Z,101667.23
2018-08-04T03:58:36.498Z,101678.42
2018-08-04T03:58:58.270Z,101674.07
2018-08-04T03:59:20.027Z,101670.91
2018-08-04T03:59:41.790Z,101667.36
2018-08-04T04:00:03.551Z,101667.36
2018-08-04T04:00:25.330Z,101667.76
2018-08-04T04:00:47.093Z,101671.70
2018-08-04T04:01:08.844Z,101672.34
2018-08-04T04:01:30.608Z,101663.52
2018-08-04T04:01:52.351Z,101669.70
2018-08-04T04:02:14.115Z,101667.87
2018-08-04T04:02:36.095Z,101666.55
2018-08-04T04:02:57.855Z,101665.23
2018-08-04T04:03:19.607Z,101666.67
2018-08-04T04:03:41.376Z,101671.58
2018-08-04T04:04:03.146Z,101667.63
2018-08-04T04:04:24.896Z,101665.52
2018-08-04T04:04:46.662Z,101666.84
2018-08-04T04:05:08.412Z,101664.20
2018-08-04T04:05:30.154Z,101670.79
2018-08-04T04:05:51.918Z,101667.63
2018-08-04T04:06:13.662Z,101667.75
2018-08-04T04:06:35.465Z,101670.38
2018-08-04T04:06:57.208Z,101658.52
2018-08-04T04:07:18.980Z,101665.11
2018-08-04T04:07:40.731Z,101666.03
2018-08-04T04:08:02.487Z,101659.32
2018-08-04T04:08:24.239Z,101662.48
2018-08-04T04:08:46.003Z,101667.87
2018-08-04T04:09:08.072Z,101670.63
2018-08-04T04:09:29.831Z,101663.13
2018-08-04T04:09:51.639Z,101665.00
2018-08-04T04:10:13.393Z,101664.84
2018-08-04T04:10:35.150Z,101672.22
2018-08-04T04:10:56.902Z,101670.91